地図

経路データ

SID SEASON NUMBER BASIN SUBBASIN NAME ISO_TIME NATURE LAT LON WMO_WIND WMO_PRES WMO_AGENCY TRACK_TYPE DIST2LAND LANDFALL IFLAG USA_AGENCY USA_ATCF_ID USA_LAT USA_LON USA_RECORD USA_STATUS USA_WIND USA_PRES USA_SSHS USA_R34_NE USA_R34_SE USA_R34_SW USA_R34_NW USA_R50_NE USA_R50_SE USA_R50_SW USA_R50_NW USA_R64_NE USA_R64_SE USA_R64_SW USA_R64_NW USA_POCI USA_ROCI USA_RMW USA_EYE TOKYO_LAT TOKYO_LON TOKYO_GRADE TOKYO_WIND TOKYO_PRES TOKYO_R50_DIR TOKYO_R50_LONG TOKYO_R50_SHORT TOKYO_R30_DIR TOKYO_R30_LONG TOKYO_R30_SHORT TOKYO_LAND CMA_LAT CMA_LON CMA_CAT CMA_WIND CMA_PRES HKO_LAT HKO_LON HKO_CAT HKO_WIND HKO_PRES NEWDELHI_LAT NEWDELHI_LON NEWDELHI_GRADE NEWDELHI_WIND NEWDELHI_PRES NEWDELHI_CI NEWDELHI_DP NEWDELHI_POCI REUNION_LAT REUNION_LON REUNION_TYPE REUNION_WIND REUNION_PRES REUNION_TNUM REUNION_CI REUNION_RMW REUNION_R34_NE REUNION_R34_SE REUNION_R34_SW REUNION_R34_NW REUNION_R50_NE REUNION_R50_SE REUNION_R50_SW REUNION_R50_NW REUNION_R64_NE REUNION_R64_SE REUNION_R64_SW REUNION_R64_NW BOM_LAT BOM_LON BOM_TYPE BOM_WIND BOM_PRES BOM_TNUM BOM_CI BOM_RMW BOM_R34_NE BOM_R34_SE BOM_R34_SW BOM_R34_NW BOM_R50_NE BOM_R50_SE BOM_R50_SW BOM_R50_NW BOM_R64_NE BOM_R64_SE BOM_R64_SW BOM_R64_NW BOM_ROCI BOM_POCI BOM_EYE BOM_POS_METHOD BOM_PRES_METHOD NADI_LAT NADI_LON NADI_CAT NADI_WIND NADI_PRES WELLINGTON_LAT WELLINGTON_LON WELLINGTON_WIND WELLINGTON_PRES DS824_LAT DS824_LON DS824_STAGE DS824_WIND DS824_PRES TD9636_LAT TD9636_LON TD9636_STAGE TD9636_WIND TD9636_PRES TD9635_LAT TD9635_LON TD9635_WIND TD9635_PRES TD9635_ROCI NEUMANN_LAT NEUMANN_LON NEUMANN_CLASS NEUMANN_WIND NEUMANN_PRES MLC_LAT MLC_LON MLC_CLASS MLC_WIND MLC_PRES USA_GUST BOM_GUST BOM_GUST_PER REUNION_GUST REUNION_GUST_PER USA_SEAHGT USA_SEARAD_NE USA_SEARAD_SE USA_SEARAD_SW USA_SEARAD_NW STORM_SPEED STORM_DIR
1916104S16153 1916 16 SP EA NOT_NAMED 1916-04-12 23:00:00 NR -15.7000 153.200 main 631 631 __________O___ -1 -15.7000 153.200 7 7 207
1916104S16153 1916 16 SP EA NOT_NAMED 1916-04-13 00:00:00 NR -15.7996 153.146 main 637 637 __________P___ -1 -15.7996 153.146 7 7 207
1916104S16153 1916 16 SP EA NOT_NAMED 1916-04-13 03:00:00 NR -16.1019 152.985 main 646 607 __________P___ -1 -16.1019 152.985 7 7 206
1916104S16153 1916 16 SP EA NOT_NAMED 1916-04-13 06:00:00 NR -16.4174 152.830 main 607 575 __________P___ -1 -16.4174 152.830 7 7 204
1916104S16153 1916 16 SP EA NOT_NAMED 1916-04-13 09:00:00 NR -16.7562 152.686 main 567 544 __________P___ -1 -16.7562 152.686 7 8 201
1916104S16153 1916 16 SP EA NOT_NAMED 1916-04-13 11:00:00 NR -17.0000 152.600 main 544 536 __________O___ -1 -17.0000 152.600 7 8 197
1916104S16153 1916 16 SP EA NOT_NAMED 1916-04-13 12:00:00 NR -17.1282 152.560 main 536 499 __________P___ -1 -17.1282 152.560 7 8 194
1916104S16153 1916 16 SP EA NOT_NAMED 1916-04-13 15:00:00 NR -17.5313 152.455 main 499 463 __________P___ -1 -17.5313 152.455 7 8 192
1916104S16153 1916 16 SP EA NOT_NAMED 1916-04-13 18:00:00 NR -17.9453 152.373 main 463 430 __________P___ -1 -17.9453 152.373 7 8 189
1916104S16153 1916 16 SP EA NOT_NAMED 1916-04-13 21:00:00 NR -18.3483 152.319 main 430 413 __________P___ -1 -18.3483 152.319 7 8 186
1916104S16153 1916 16 SP EA NOT_NAMED 1916-04-13 23:00:00 NR -18.6000 152.300 main 413 408 __________O___ -1 -18.6000 152.300 7 7 187
1916104S16153 1916 16 SP EA NOT_NAMED 1916-04-14 00:00:00 NR -18.7146 152.288 main 408 393 __________P___ -1 -18.7146 152.288 7 7 185
1916104S16153 1916 16 SP EA NOT_NAMED 1916-04-14 03:00:00 NR -19.0369 152.269 main 393 379 __________P___ -1 -19.0369 152.269 7 6 0
1916104S16153 1916 16 SP EA NOT_NAMED 1916-04-14 06:00:00 NR -19.3343 152.284 main 379 354 __________P___ -1 -19.3343 152.284 7 6 174
1916104S16153 1916 16 SP EA NOT_NAMED 1916-04-14 09:00:00 NR -19.6161 152.339 main 354 340 __________P___ -1 -19.6161 152.339 7 6 166
1916104S16153 1916 16 SP EA NOT_NAMED 1916-04-14 11:00:00 NR -19.8000 152.400 main 340 330 __________O___ -1 -19.8000 152.400 7 6 164
1916104S16153 1916 16 SP EA NOT_NAMED 1916-04-14 12:00:00 NR -19.8875 152.421 main 330 317 __________P___ -1 -19.8875 152.421 7 5 163
1916104S16153 1916 16 SP EA NOT_NAMED 1916-04-14 15:00:00 NR -20.1413 152.511 main 317 297 __________P___ -1 -20.1413 152.511 7 6 157
1916104S16153 1916 16 SP EA NOT_NAMED 1916-04-14 18:00:00 NR -20.3995 152.659 main 304 295 __________P___ -1 -20.3995 152.659 7 7 147
1916104S16153 1916 16 SP EA NOT_NAMED 1916-04-14 21:00:00 NR -20.6844 152.889 main 295 295 __________P___ -1 -20.6844 152.889 7 8 140
1916104S16153 1916 16 SP EA NOT_NAMED 1916-04-14 23:00:00 NR -20.9000 153.100 main 297 297 __________O___ -1 -20.9000 153.100 7 9 137
1916104S16153 1916 16 SP EA NOT_NAMED 1916-04-15 00:00:00 NR -21.0229 153.222 main 299 299 __________P___ -1 -21.0229 153.222 7 11 135
1916104S16153 1916 16 SP EA NOT_NAMED 1916-04-15 03:00:00 NR -21.4249 153.662 main 323 319 __________P___ -1 -21.4249 153.662 7 12 133
1916104S16153 1916 16 SP EA NOT_NAMED 1916-04-15 06:00:00 NR -21.8600 154.192 main 336 313 __________P___ -1 -21.8600 154.192 7 14 130
1916104S16153 1916 16 SP EA NOT_NAMED 1916-04-15 09:00:00 NR -22.3065 154.785 main 318 306 __________P___ -1 -22.3065 154.785 7 14 128
1916104S16153 1916 16 SP EA NOT_NAMED 1916-04-15 11:00:00 NR -22.6000 155.200 main 312 310 __________O___ -1 -22.6000 155.200 7 14 127
1916104S16153 1916 16 SP EA NOT_NAMED 1916-04-15 12:00:00 NR -22.7364 155.394 main 317 309 __________P___ -1 -22.7364 155.394 7 14 126
1916104S16153 1916 16 SP EA NOT_NAMED 1916-04-15 15:00:00 NR -23.1403 156.002 main 333 327 __________P___ -1 -23.1403 156.002 7 14 125
1916104S16153 1916 16 SP EA NOT_NAMED 1916-04-15 18:00:00 NR -23.5387 156.646 main 364 364 __________P___ -1 -23.5387 156.646 7 15 123
1916104S16153 1916 16 SP EA NOT_NAMED 1916-04-15 21:00:00 NR -23.9351 157.326 main 413 413 __________P___ -1 -23.9351 157.326 7 15 122
1916104S16153 1916 16 SP EA NOT_NAMED 1916-04-15 23:00:00 NR -24.2000 157.800 main 453 453 __________O___ -1 -24.2000 157.800 7 15 121
1916104S16153 1916 16 SP EA NOT_NAMED 1916-04-16 00:00:00 NR -24.3345 158.043 main 471 471 __________P___ -1 -24.3345 158.043 7 16 121
1916104S16153 1916 16 SP EA NOT_NAMED 1916-04-16 03:00:00 NR -24.7385 158.800 main 545 544 __________P___ -1 -24.7385 158.800 7 16 120
1916104S16153 1916 16 SP EA NOT_NAMED 1916-04-16 06:00:00 NR -25.1410 159.584 main 624 624 __________P___ -1 -25.1410 159.584 7 16 119
1916104S16153 1916 16 SP MM NOT_NAMED 1916-04-16 09:00:00 NR -25.5388 160.377 main 648 636 __________P___ -1 -25.5388 160.377 7 16 119
1916104S16153 1916 16 SP MM NOT_NAMED 1916-04-16 11:00:00 NR -25.8000 160.900 main 638 632 __________O___ -1 -25.8000 160.900 7 16 119
1916104S16153 1916 16 SP MM NOT_NAMED 1916-04-16 12:00:00 NR -25.9292 161.158 main 628 622 __________P___ -1 -25.9292 161.158 7 16 119
1916104S16153 1916 16 SP MM NOT_NAMED 1916-04-16 15:00:00 NR -26.3114 161.920 main 626 615 __________P___ -1 -26.3114 161.920 7 16 119
1916104S16153 1916 16 SP MM NOT_NAMED 1916-04-16 18:00:00 NR -26.6866 162.667 main 617 606 __________P___ -1 -26.6866 162.667 7 15 119
1916104S16153 1916 16 SP MM NOT_NAMED 1916-04-16 21:00:00 NR -27.0562 163.407 main 615 606 __________P___ -1 -27.0562 163.407 7 15 119
1916104S16153 1916 16 SP MM NOT_NAMED 1916-04-16 23:00:00 NR -27.3000 163.900 main 612 __________O___ -1 -27.3000 163.900 7 15 119

デジタル台風データ・検索

IBTrACS Databaseについて

本データベースは、米国NOAAが公開する1842年以降の世界の熱帯低気圧のベストトラックデータアーカイブInternational Best Track Archive for Climate Stewardship (IBTrACS)を、ウェブで閲覧しやすい形式に変換したものです。

最終更新日:2021-10-25